Time;durP1;ratioP1;P1;durP2;ratioP2;P2;SDS_P1;SDS_P2;PMS_P1;PMS_P2;Temp;Humidity;BMP_temperature;BMP_pressure;BME280_temperature;BME280_humidity;BME280_pressure;Samples;Min_cycle;Max_cycle;Signal;HPM_P1;HPM_P2
2023/09/18 00:00:08;;;;;;;2.83;2.10;;;;;;;12.63;100.00;99752.81;5058656;28;20037;-78
2023/09/18 00:02:34;;;;;;;5.53;2.53;;;;;;;12.54;100.00;99744.13;5059555;28;20075;-77
2023/09/18 00:04:59;;;;;;;3.47;2.45;;;;;;;12.45;100.00;99751.63;5075536;28;20119;-77
2023/09/18 00:07:25;;;;;;;5.85;2.55;;;;;;;12.32;100.00;99747.09;5075344;28;20025;-77
2023/09/18 00:09:51;;;;;;;8.90;3.08;;;;;;;12.25;100.00;99754.41;5075538;28;20028;-77
2023/09/18 00:12:16;;;;;;;5.28;2.50;;;;;;;12.15;100.00;99748.63;5058295;28;20031;-78
2023/09/18 00:14:42;;;;;;;4.45;2.60;;;;;;;12.05;100.00;99750.91;5075401;28;20047;-77
2023/09/18 00:17:08;;;;;;;4.88;2.63;;;;;;;11.96;100.00;99746.78;5058691;28;20039;-78
2023/09/18 00:19:35;;;;;;;6.40;2.50;;;;;;;11.82;100.00;99738.69;5074828;28;20091;-77
2023/09/18 00:22:01;;;;;;;6.30;2.55;;;;;;;11.82;100.00;99741.38;5058627;28;20032;-77
2023/09/18 00:24:27;;;;;;;8.80;2.50;;;;;;;11.81;100.00;99738.91;5058528;28;20020;-77
2023/09/18 00:26:53;;;;;;;10.77;2.45;;;;;;;11.79;100.00;99736.41;5075002;28;20037;-79
2023/09/18 00:29:19;;;;;;;10.50;2.40;;;;;;;11.74;100.00;99740.75;5075835;28;20402;-77
2023/09/18 00:31:45;;;;;;;4.63;2.30;;;;;;;11.70;100.00;99740.38;5075889;28;20493;-78
2023/09/18 00:34:11;;;;;;;5.43;2.00;;;;;;;11.72;100.00;99745.53;5041878;28;20033;-78
2023/09/18 00:36:37;;;;;;;3.83;1.80;;;;;;;11.71;100.00;99743.88;5074862;28;20455;-77
2023/09/18 00:39:03;;;;;;;5.88;2.00;;;;;;;11.63;100.00;99734.16;5041858;28;20471;-77
2023/09/18 00:41:29;;;;;;;6.57;2.00;;;;;;;11.52;100.00;99737.47;5058401;28;20034;-77
2023/09/18 00:43:55;;;;;;;6.45;2.40;;;;;;;11.45;100.00;99726.69;5041744;28;20028;-78
2023/09/18 00:46:22;;;;;;;4.43;2.20;;;;;;;11.38;100.00;99737.47;5075886;28;20494;-78
2023/09/18 00:48:48;;;;;;;4.47;2.42;;;;;;;11.34;100.00;99732.69;5025223;28;20429;-77
2023/09/18 00:51:14;;;;;;;4.18;2.10;;;;;;;11.28;100.00;99731.66;5058035;28;20040;-79
2023/09/18 00:53:44;;;;;;;6.45;2.10;;;;;;;11.20;100.00;99734.53;5025031;28;20067;-77
2023/09/18 00:56:10;;;;;;;5.40;2.63;;;;;;;11.15;100.00;99735.16;5058012;28;20039;-80
2023/09/18 00:58:35;;;;;;;4.53;2.22;;;;;;;11.11;100.00;99743.81;5041283;28;20032;-77
2023/09/18 01:01:01;;;;;;;5.88;2.13;;;;;;;11.06;100.00;99741.78;5057734;28;20482;-77
2023/09/18 01:03:26;;;;;;;5.30;2.38;;;;;;;11.04;100.00;99740.31;5057943;28;20079;-77
2023/09/18 01:05:53;;;;;;;7.00;2.38;;;;;;;10.97;100.00;99726.84;5057841;28;20036;-80
2023/09/18 01:08:19;;;;;;;6.53;2.83;;;;;;;10.87;100.00;99737.16;5057487;28;20059;-79
2023/09/18 01:10:54;;;;;;;4.85;2.38;;;;;;;10.87;100.00;99737.97;5074208;28;20387;-80
2023/09/18 01:13:24;;;;;;;4.72;2.67;;;;;;;10.84;100.00;99724.13;5057464;28;20066;-79
2023/09/18 01:16:02;;;;;;;4.97;2.90;;;;;;;10.80;100.00;99723.69;5041325;28;20122;-80
2023/09/18 01:18:28;;;;;;;6.53;2.90;;;;;;;10.76;100.00;99722.44;5057532;28;20047;-77
2023/09/18 01:20:54;;;;;;;7.63;3.05;;;;;;;10.73;100.00;99712.09;5073957;28;20020;-77
2023/09/18 01:23:19;;;;;;;7.93;2.55;;;;;;;10.70;100.00;99715.19;5057428;28;20025;-77
2023/09/18 01:25:45;;;;;;;6.05;3.33;;;;;;;10.60;100.00;99709.38;5057438;28;20410;-77
2023/09/18 01:28:10;;;;;;;7.80;3.15;;;;;;;10.51;100.00;99712.22;5057324;28;20423;-77
2023/09/18 01:30:38;;;;;;;11.63;2.97;;;;;;;10.47;100.00;99707.44;5040683;28;20052;-77
2023/09/18 01:33:04;;;;;;;6.43;3.00;;;;;;;10.42;100.00;99708.03;5073943;28;20044;-76
2023/09/18 01:35:31;;;;;;;4.25;2.88;;;;;;;10.36;100.00;99703.47;5073610;28;20032;-77
2023/09/18 01:37:57;;;;;;;8.27;2.83;;;;;;;10.23;100.00;99698.00;5073617;28;20028;-77
2023/09/18 01:40:24;;;;;;;9.65;2.60;;;;;;;10.11;100.00;99690.53;5040385;28;20448;-77
2023/09/18 01:42:50;;;;;;;7.50;2.88;;;;;;;10.09;100.00;99691.75;5040609;28;20055;-77
2023/09/18 01:45:15;;;;;;;4.60;2.85;;;;;;;10.04;100.00;99678.09;5073178;28;20464;-77
2023/09/18 01:47:41;;;;;;;10.25;3.30;;;;;;;9.98;100.00;99679.72;5074704;28;20078;-77
2023/09/18 01:50:07;;;;;;;6.25;2.83;;;;;;;9.94;100.00;99675.75;5073108;28;20074;-77
2023/09/18 01:52:34;;;;;;;7.47;3.25;;;;;;;9.91;100.00;99676.16;5056796;28;20024;-77
2023/09/18 01:55:00;;;;;;;9.40;3.25;;;;;;;9.85;100.00;99669.72;5073250;28;20116;-77
2023/09/18 01:57:26;;;;;;;5.65;2.70;;;;;;;9.79;100.00;99658.94;5040339;28;20037;-77
2023/09/18 01:59:51;;;;;;;5.20;2.80;;;;;;;9.71;100.00;99653.72;5056807;28;20033;-77
2023/09/18 02:02:17;;;;;;;5.88;2.55;;;;;;;9.58;100.00;99652.63;5040249;28;20493;-77
2023/09/18 02:04:42;;;;;;;7.88;2.90;;;;;;;9.55;100.00;99658.41;5056653;28;20031;-77
2023/09/18 02:07:08;;;;;;;6.10;2.97;;;;;;;9.47;100.00;99650.47;5056756;28;20036;-77
2023/09/18 02:09:34;;;;;;;5.95;2.63;;;;;;;9.35;100.00;99644.84;5039602;28;20421;-78
2023/09/18 02:12:00;;;;;;;8.95;3.22;;;;;;;9.22;100.00;99642.88;5039483;28;20051;-77
2023/09/18 02:14:25;;;;;;;6.78;2.75;;;;;;;9.10;100.00;99635.53;5040028;28;20055;-77
2023/09/18 02:16:51;;;;;;;8.10;3.50;;;;;;;9.01;100.00;99626.81;5039743;28;20036;-80
2023/09/18 02:19:18;;;;;;;6.88;2.97;;;;;;;8.98;100.00;99630.72;5072579;28;20036;-80
2023/09/18 02:21:43;;;;;;;6.88;2.85;;;;;;;8.96;100.00;99621.19;5040049;28;20123;-77
2023/09/18 02:24:09;;;;;;;10.95;3.42;;;;;;;8.96;100.00;99626.56;5056372;28;20110;-78
2023/09/18 02:26:35;;;;;;;8.45;3.28;;;;;;;8.86;100.00;99626.06;5072868;28;20540;-77
2023/09/18 02:29:10;;;;;;;7.55;3.05;;;;;;;8.78;100.00;99625.16;5055905;28;20036;-77
2023/09/18 02:31:36;;;;;;;10.73;3.15;;;;;;;8.87;100.00;99628.56;5072982;28;20021;-79
2023/09/18 02:34:02;;;;;;;7.38;3.10;;;;;;;8.99;100.00;99623.50;5055477;28;20036;-77
2023/09/18 02:36:27;;;;;;;7.43;2.95;;;;;;;9.23;100.00;99616.88;5072637;28;20029;-78
2023/09/18 02:39:22;;;;;;;10.50;3.72;;;;;;;9.55;100.00;99614.59;5039657;28;20036;-77
2023/09/18 02:41:47;;;;;;;9.30;3.72;;;;;;;9.77;100.00;99618.06;5055898;28;20056;-76
2023/09/18 02:44:13;;;;;;;11.43;3.40;;;;;;;9.91;100.00;99615.22;5056131;28;20124;-80
2023/09/18 02:46:40;;;;;;;10.05;3.65;;;;;;;10.04;100.00;99613.63;5072319;28;20025;-77
2023/09/18 02:49:06;;;;;;;8.55;3.10;;;;;;;10.12;100.00;99611.59;5039226;28;20391;-77
2023/09/18 02:51:34;;;;;;;8.38;3.15;;;;;;;10.20;100.00;99607.09;5055425;28;20032;-76
2023/09/18 02:53:59;;;;;;;7.47;3.30;;;;;;;10.25;100.00;99593.88;5039550;28;20605;-76
2023/09/18 02:56:25;;;;;;;7.50;3.00;;;;;;;10.33;100.00;99599.91;5055876;28;20123;-76
2023/09/18 02:58:51;;;;;;;9.13;3.47;;;;;;;10.39;100.00;99590.22;5055960;28;20471;-76
2023/09/18 03:01:17;;;;;;;6.45;2.97;;;;;;;10.45;100.00;99594.81;5039328;28;20037;-77
2023/09/18 03:03:43;;;;;;;9.25;2.80;;;;;;;10.47;100.00;99586.50;5071981;28;20025;-79
2023/09/18 03:06:08;;;;;;;5.68;2.70;;;;;;;10.51;100.00;99577.84;5055632;28;20086;-77
2023/09/18 03:08:34;;;;;;;8.50;2.95;;;;;;;10.50;100.00;99586.91;5055109;28;20044;-77
2023/09/18 03:11:01;;;;;;;6.38;2.45;;;;;;;10.53;100.00;99580.31;5071938;28;20472;-77
2023/09/18 03:13:27;;;;;;;7.03;2.58;;;;;;;10.56;100.00;99585.31;5055869;28;20036;-77
2023/09/18 03:15:53;;;;;;;5.50;3.33;;;;;;;10.55;100.00;99589.81;5039141;28;20546;-77
2023/09/18 03:18:24;;;;;;;5.32;2.20;;;;;;;10.55;100.00;99589.81;5055509;28;20127;-76
2023/09/18 03:20:50;;;;;;;4.47;2.65;;;;;;;10.52;100.00;99595.63;5072202;28;20047;-76
2023/09/18 03:23:16;;;;;;;6.93;2.20;;;;;;;10.52;100.00;99595.63;5072365;28;20032;-76
2023/09/18 03:25:41;;;;;;;7.90;2.33;;;;;;;10.52;100.00;99590.25;5072200;28;20024;-76
2023/09/18 03:28:07;;;;;;;10.65;2.42;;;;;;;10.53;100.00;99588.38;5072103;28;20078;-76
2023/09/18 03:30:32;;;;;;;4.30;1.80;;;;;;;10.56;100.00;99575.38;5075770;28;20116;-76
2023/09/18 03:32:58;;;;;;;4.00;1.60;;;;;;;10.65;100.00;99599.38;5076236;28;20024;-76
2023/09/18 03:35:24;;;;;;;4.88;1.58;;;;;;;10.70;100.00;99592.34;5075720;28;20081;-77
2023/09/18 03:37:51;;;;;;;4.43;1.80;;;;;;;10.76;100.00;99602.25;5075786;28;20131;-77
2023/09/18 03:40:18;;;;;;;4.50;1.63;;;;;;;10.79;100.00;99595.66;5077212;28;20120;-77
2023/09/18 03:42:44;;;;;;;2.25;1.38;;;;;;;10.85;100.00;99589.47;5059217;28;20040;-79
2023/09/18 03:45:10;;;;;;;3.25;1.02;;;;;;;10.96;100.00;99591.53;5075649;28;20089;-77
2023/09/18 03:47:37;;;;;;;3.75;1.02;;;;;;;11.09;100.00;99600.66;5042318;28;20020;-77
2023/09/18 03:50:03;;;;;;;4.10;0.95;;;;;;;11.15;100.00;99602.50;5042925;28;20063;-77
2023/09/18 03:52:29;;;;;;;5.93;1.10;;;;;;;11.17;100.00;99595.06;5059215;28;20033;-77
2023/09/18 03:54:55;;;;;;;5.13;1.05;;;;;;;11.18;100.00;99602.06;5059276;28;20036;-77
2023/09/18 03:57:20;;;;;;;3.88;0.80;;;;;;;11.15;100.00;99599.81;5076577;28;20029;-77
2023/09/18 03:59:46;;;;;;;9.20;1.23;;;;;;;11.11;100.00;99601.25;5042367;28;20390;-77
2023/09/18 04:02:11;;;;;;;7.68;1.48;;;;;;;11.07;100.00;99592.78;5059117;28;20039;-77
2023/09/18 04:04:37;;;;;;;8.88;1.20;;;;;;;10.97;100.00;99593.19;5042507;28;20032;-77
2023/09/18 04:07:06;;;;;;;5.20;1.15;;;;;;;10.96;100.00;99601.47;5075472;28;20036;-78
2023/09/18 04:09:32;;;;;;;1.50;0.93;;;;;;;10.88;100.00;99594.44;5074783;28;20068;-77
2023/09/18 04:11:57;;;;;;;8.23;1.58;;;;;;;10.84;100.00;99601.25;5042236;28;20067;-77
2023/09/18 04:14:23;;;;;;;2.70;1.02;;;;;;;10.81;100.00;99604.34;5076631;28;20177;-77
2023/09/18 04:16:49;;;;;;;7.25;1.92;;;;;;;10.73;100.00;99601.84;5058917;28;20029;-78
2023/09/18 04:19:18;;;;;;;13.20;1.83;;;;;;;10.64;100.00;99611.13;5076486;28;20391;-78
2023/09/18 04:21:43;;;;;;;7.32;1.60;;;;;;;10.49;100.00;99604.09;5075118;28;20147;-78
2023/09/18 04:24:09;;;;;;;7.10;1.35;;;;;;;10.32;100.00;99600.13;5041856;28;20135;-78
2023/09/18 04:26:34;;;;;;;5.20;1.30;;;;;;;10.20;100.00;99591.78;5058530;28;20028;-80
2023/09/18 04:29:00;;;;;;;9.57;1.80;;;;;;;10.10;100.00;99602.91;5074828;28;20029;-79
2023/09/18 04:31:27;;;;;;;10.35;2.10;;;;;;;9.93;100.00;99590.88;5042135;28;20062;-78
2023/09/18 04:33:53;;;;;;;24.38;2.22;;;;;;;9.74;100.00;99602.31;5075025;28;20515;-80
2023/09/18 04:36:19;;;;;;;10.77;2.53;;;;;;;9.64;100.00;99602.72;5058148;28;20032;-78
2023/09/18 04:38:45;;;;;;;6.28;1.50;;;;;;;9.64;100.00;99606.22;5041440;28;20123;-80
2023/09/18 04:41:11;;;;;;;6.13;1.67;;;;;;;9.56;100.00;99598.31;5057988;28;20135;-80
2023/09/18 04:43:40;;;;;;;8.98;1.73;;;;;;;9.53;100.00;99605.94;5058053;28;20065;-80
2023/09/18 04:46:06;;;;;;;11.48;1.70;;;;;;;9.40;100.00;99612.06;5074385;28;20082;-79
2023/09/18 04:48:32;;;;;;;12.73;1.50;;;;;;;9.31;100.00;99615.91;5057537;28;20032;-79
2023/09/18 04:50:59;;;;;;;6.93;1.42;;;;;;;9.18;100.00;99616.63;5057859;28;20036;-79
2023/09/18 04:53:24;;;;;;;11.48;1.92;;;;;;;9.01;100.00;99610.72;5074599;28;20025;-79
2023/09/18 04:59:16;;;;;;;6.20;2.00;;;;;;;8.75;100.00;99611.31;5055170;28;20047;-79
2023/09/18 05:01:42;;;;;;;11.88;2.10;;;;;;;8.68;100.00;99613.94;5057715;28;20036;-79
2023/09/18 05:04:08;;;;;;;8.57;1.80;;;;;;;8.66;100.00;99607.94;5057535;28;20074;-79
2023/09/18 05:06:33;;;;;;;8.93;1.67;;;;;;;8.64;100.00;99611.84;5057923;28;20201;-79
2023/09/18 05:08:59;;;;;;;9.63;1.77;;;;;;;8.49;100.00;99609.22;5057437;28;20033;-79
2023/09/18 05:11:25;;;;;;;13.02;2.15;;;;;;;8.48;100.00;99603.03;5074023;28;20460;-80
2023/09/18 05:13:50;;;;;;;14.82;2.17;;;;;;;8.45;100.00;99616.81;5041169;28;20182;-80
2023/09/18 05:16:18;;;;;;;6.45;1.63;;;;;;;8.35;100.00;99614.41;5057711;28;20040;-79
2023/09/18 05:18:44;;;;;;;12.63;2.03;;;;;;;8.30;100.00;99611.44;5041166;28;20101;-80
2023/09/18 05:21:10;;;;;;;10.63;2.10;;;;;;;8.18;100.00;99622.84;5040872;28;20028;-79
2023/09/18 05:23:36;;;;;;;12.60;1.80;;;;;;;8.03;100.00;99618.34;5057458;28;20040;-79
2023/09/18 05:26:03;;;;;;;12.07;2.22;;;;;;;7.92;100.00;99616.97;5057644;28;20024;-80
2023/09/18 05:28:28;;;;;;;10.77;2.10;;;;;;;7.89;100.00;99621.88;5056840;28;20040;-81
2023/09/18 05:30:54;;;;;;;7.78;1.50;;;;;;;7.92;100.00;99624.19;5057332;28;20045;-79
2023/09/18 05:33:20;;;;;;;9.95;2.28;;;;;;;7.87;100.00;99619.38;5057476;28;20120;-79
2023/09/18 05:35:46;;;;;;;13.75;2.00;;;;;;;7.86;100.00;99615.06;5057071;28;20040;-80
2023/09/18 05:38:17;;;;;;;9.70;2.10;;;;;;;7.77;100.00;99607.31;5056847;28;20422;-79
2023/09/18 05:40:44;;;;;;;12.02;2.08;;;;;;;7.53;100.00;99608.44;5057788;28;20097;-80
2023/09/18 05:43:11;;;;;;;13.63;1.95;;;;;;;7.35;100.00;99606.09;5057162;28;20036;-77
2023/09/18 05:45:38;;;;;;;14.80;2.10;;;;;;;7.31;100.00;99599.47;5057344;28;20142;-80
2023/09/18 05:48:04;;;;;;;17.10;2.45;;;;;;;7.19;100.00;99601.75;5040408;28;20563;-80
2023/09/18 05:50:31;;;;;;;10.23;1.90;;;;;;;6.99;100.00;99596.94;5056548;28;20028;-79
2023/09/18 05:53:00;;;;;;;10.32;2.65;;;;;;;6.88;100.00;99610.75;5039497;28;20024;-79
2023/09/18 05:55:26;;;;;;;10.00;2.00;;;;;;;6.75;100.00;99607.84;5056865;28;20521;-79
2023/09/18 05:57:53;;;;;;;10.65;1.80;;;;;;;6.71;100.00;99614.53;5073322;28;20382;-79
2023/09/18 06:00:19;;;;;;;10.73;1.60;;;;;;;6.64;100.00;99610.91;5056631;28;20035;-79
2023/09/18 06:02:45;;;;;;;9.02;1.90;;;;;;;6.60;100.00;99607.78;5072879;28;20028;-79
2023/09/18 06:05:11;;;;;;;6.90;1.77;;;;;;;6.51;100.00;99612.34;5056970;28;20068;-79
2023/09/18 06:07:37;;;;;;;9.02;2.00;;;;;;;6.64;100.00;99619.75;5073136;28;20132;-79
2023/09/18 06:10:03;;;;;;;7.80;2.10;;;;;;;6.80;100.00;99618.78;5073054;28;20044;-79
2023/09/18 06:12:29;;;;;;;15.85;2.30;;;;;;;6.97;100.00;99625.69;5072957;28;20028;-79
2023/09/18 06:14:55;;;;;;;15.63;1.90;;;;;;;7.17;100.00;99628.69;5039698;28;20055;-80
2023/09/18 06:17:21;;;;;;;20.50;2.88;;;;;;;7.45;100.00;99622.72;5056229;28;20459;-79
2023/09/18 06:19:46;;;;;;;15.70;2.53;;;;;;;7.82;100.00;99629.00;5039920;28;20368;-79
2023/09/18 06:22:12;;;;;;;14.07;2.97;;;;;;;8.08;100.00;99633.88;5039747;28;20028;-79
2023/09/18 06:24:38;;;;;;;9.00;1.73;;;;;;;8.30;100.00;99656.16;5056458;28;20040;-79
2023/09/18 06:27:04;;;;;;;10.88;2.05;;;;;;;8.43;100.00;99674.25;5072735;28;20035;-80
2023/09/18 06:29:38;;;;;;;5.68;1.40;;;;;;;8.53;100.00;99685.53;5055901;28;20039;-79
2023/09/18 06:32:04;;;;;;;7.78;1.63;;;;;;;8.54;100.00;99669.22;5072405;28;20031;-78
2023/09/18 06:34:30;;;;;;;7.68;1.20;;;;;;;8.59;100.00;99650.75;5056093;28;20028;-78
2023/09/18 06:36:56;;;;;;;9.88;1.40;;;;;;;8.67;100.00;99651.66;5039598;28;20566;-77
2023/09/18 06:39:23;;;;;;;8.27;1.10;;;;;;;8.70;100.00;99649.41;5039663;28;20040;-77
2023/09/18 06:41:49;;;;;;;10.55;1.83;;;;;;;8.80;100.00;99644.56;5056263;28;20032;-77
2023/09/18 06:44:15;;;;;;;3.85;1.30;;;;;;;8.91;100.00;99640.53;5072278;28;20028;-78
2023/09/18 06:46:43;;;;;;;3.35;1.00;;;;;;;9.01;100.00;99632.19;5055584;28;20086;-77
2023/09/18 06:49:09;;;;;;;7.70;1.20;;;;;;;9.05;100.00;99630.78;5038999;28;20089;-78
2023/09/18 06:51:38;;;;;;;3.20;1.25;;;;;;;8.99;100.00;99628.84;5071827;28;20029;-78
2023/09/18 06:54:05;;;;;;;9.20;1.52;;;;;;;8.99;100.00;99626.16;5056090;28;20045;-78
2023/09/18 06:56:30;;;;;;;8.38;1.45;;;;;;;9.02;100.00;99628.47;5039198;28;20093;-77
2023/09/18 06:58:59;;;;;;;8.75;1.08;;;;;;;9.11;100.00;99635.34;5055631;28;20032;-77
2023/09/18 07:01:25;;;;;;;6.50;1.20;;;;;;;9.23;100.00;99641.88;5039113;28;20499;-77
2023/09/18 07:03:51;;;;;;;6.07;1.35;;;;;;;9.27;100.00;99644.16;5039115;28;20101;-77
2023/09/18 07:06:20;;;;;;;9.38;1.10;;;;;;;9.14;100.00;99637.66;5038842;28;20372;-77
2023/09/18 07:08:49;;;;;;;8.70;1.33;;;;;;;9.10;100.00;99660.50;5023451;28;20052;-77
2023/09/18 07:11:16;;;;;;;8.93;1.75;;;;;;;9.15;100.00;99649.19;5038989;28;20036;-77
2023/09/18 07:13:43;;;;;;;7.97;1.58;;;;;;;9.18;100.00;99652.34;5038800;28;20541;-77
2023/09/18 07:16:09;;;;;;;6.28;1.25;;;;;;;9.50;100.00;99663.53;5038047;28;20040;-77
2023/09/18 07:18:35;;;;;;;3.75;1.35;;;;;;;10.19;100.00;99678.78;5038960;28;20501;-79
2023/09/18 07:21:01;;;;;;;1.73;0.90;;;;;;;10.51;100.00;99685.34;5055423;28;20033;-78
2023/09/18 07:23:27;;;;;;;5.18;1.48;;;;;;;10.49;100.00;99690.09;5039021;28;20033;-76
2023/09/18 07:25:52;;;;;;;2.70;0.75;;;;;;;10.44;100.00;99691.72;5055542;28;20036;-79
2023/09/18 07:28:21;;;;;;;7.43;1.10;;;;;;;10.38;100.00;99682.63;5071818;28;20112;-79
2023/09/18 07:30:49;;;;;;;1.55;0.90;;;;;;;10.26;100.00;99670.75;5071913;28;20029;-79
2023/09/18 07:33:19;;;;;;;2.60;0.80;;;;;;;10.31;100.00;99677.19;5038774;28;20036;-80
2023/09/18 07:35:49;;;;;;;2.45;1.45;;;;;;;10.34;100.00;99673.28;5055676;28;20041;-77
2023/09/18 07:38:15;;;;;;;5.82;1.77;;;;;;;10.35;100.00;99669.59;5055470;28;20043;-77
2023/09/18 07:40:43;;;;;;;4.93;1.20;;;;;;;10.34;100.00;99670.59;5055392;28;20032;-78
2023/09/18 07:43:09;;;;;;;7.38;1.52;;;;;;;10.87;100.00;99673.44;5039148;28;20036;-78
2023/09/18 07:45:34;;;;;;;4.88;1.30;;;;;;;10.84;100.00;99664.97;5038722;28;20039;-78
2023/09/18 07:48:00;;;;;;;8.07;1.80;;;;;;;11.80;100.00;99672.59;5038615;28;20021;-78
2023/09/18 07:50:28;;;;;;;3.03;1.00;;;;;;;12.48;100.00;99664.09;5039220;28;20090;-79
2023/09/18 07:52:53;;;;;;;4.90;1.42;;;;;;;12.81;100.00;99663.94;5053530;28;20036;-77
2023/09/18 07:55:19;;;;;;;6.18;1.25;;;;;;;13.51;100.00;99653.03;5036810;28;20039;-78
2023/09/18 07:57:45;;;;;;;7.63;1.30;;;;;;;13.90;100.00;99653.69;5038238;28;20028;-77
2023/09/18 08:00:15;;;;;;;5.75;1.15;;;;;;;14.22;100.00;99654.34;5055155;28;20119;-78
2023/09/18 08:02:42;;;;;;;7.63;1.52;;;;;;;14.47;100.00;99659.66;5055413;28;20081;-78
2023/09/18 08:05:08;;;;;;;5.38;1.50;;;;;;;14.75;100.00;99662.84;5071570;28;20039;-78
2023/09/18 08:07:35;;;;;;;10.77;1.40;;;;;;;15.05;100.00;99660.09;5071821;28;20123;-78
2023/09/18 08:10:05;;;;;;;8.82;1.70;;;;;;;15.34;100.00;99667.34;5054900;28;20032;-78
2023/09/18 08:12:30;;;;;;;6.72;2.17;;;;;;;15.72;100.00;99662.59;5070730;28;20021;-79
2023/09/18 08:14:58;;;;;;;4.97;1.20;;;;;;;16.46;100.00;99660.91;5054646;28;20526;-79
2023/09/18 08:17:25;;;;;;;4.32;1.42;;;;;;;17.36;100.00;99655.75;5058612;28;20040;-79
2023/09/18 08:19:52;;;;;;;3.05;1.20;;;;;;;16.15;100.00;99661.34;5041714;28;20093;-79
2023/09/18 08:22:19;;;;;;;6.20;1.38;;;;;;;14.33;100.00;99674.38;5058490;28;20075;-79
2023/09/18 08:24:46;;;;;;;4.75;0.90;;;;;;;13.14;100.00;99674.47;5074723;28;20040;-78
2023/09/18 08:27:16;;;;;;;4.22;1.67;;;;;;;12.41;100.00;99672.25;5041876;28;20139;-79
2023/09/18 08:29:43;;;;;;;4.57;0.88;;;;;;;11.97;100.00;99678.41;5041760;28;20475;-78
2023/09/18 08:32:09;;;;;;;9.35;0.90;;;;;;;11.73;100.00;99674.50;5041862;28;20045;-78
2023/09/18 08:34:34;;;;;;;1.88;0.77;;;;;;;12.07;100.00;99684.19;5041920;28;20093;-78
2023/09/18 08:37:31;;;;;;;4.72;1.42;;;;;;;13.29;100.00;99676.91;5057983;28;20033;-80
2023/09/18 08:40:16;;;;;;;4.90;1.30;;;;;;;14.23;100.00;99669.50;5048649;28;20029;-80
2023/09/18 08:42:46;;;;;;;2.90;0.80;;;;;;;15.08;100.00;99681.28;5058108;28;20036;-79
2023/09/18 08:45:19;;;;;;;8.35;1.13;;;;;;;15.38;100.00;99684.78;5041582;28;20032;-81
2023/09/18 08:47:45;;;;;;;1.25;0.73;;;;;;;15.58;100.00;99684.44;5041586;28;20044;-80
2023/09/18 08:50:11;;;;;;;4.88;1.25;;;;;;;15.23;100.00;99681.69;5041292;28;20032;-80
2023/09/18 08:52:37;;;;;;;9.88;2.42;;;;;;;16.04;100.00;99668.44;5041334;28;20034;-80
2023/09/18 08:55:04;;;;;;;7.80;1.63;;;;;;;16.60;100.00;99666.84;5041283;28;20040;-79
2023/09/18 08:57:30;;;;;;;5.25;1.92;;;;;;;16.98;100.00;99670.84;5057613;28;20032;-79
2023/09/18 08:59:58;;;;;;;4.90;1.00;;;;;;;17.11;100.00;99670.53;5074680;28;20090;-79
2023/09/18 09:02:23;;;;;;;5.07;1.30;;;;;;;16.88;100.00;99670.66;5040929;28;20024;-78
2023/09/18 09:04:49;;;;;;;6.90;1.48;;;;;;;16.81;100.00;99662.66;5057165;28;20028;-79
2023/09/18 09:07:15;;;;;;;5.40;1.40;;;;;;;16.96;100.00;99670.25;5040382;28;20036;-79
2023/09/18 09:09:41;;;;;;;5.95;1.63;;;;;;;17.08;100.00;99665.59;5023356;28;20506;-79
2023/09/18 09:12:08;;;;;;;4.57;1.10;;;;;;;17.37;100.00;99660.09;5039732;28;20064;-79
2023/09/18 09:14:33;;;;;;;5.03;1.35;;;;;;;17.56;100.00;99666.09;5040971;28;20038;-80
2023/09/18 09:16:59;;;;;;;7.22;1.48;;;;;;;17.62;100.00;99658.81;5040978;28;20131;-81
2023/09/18 09:19:30;;;;;;;5.47;1.40;;;;;;;18.12;100.00;99664.19;5057191;28;20452;-80
2023/09/18 09:21:56;;;;;;;9.90;1.65;;;;;;;18.61;100.00;99672.41;5040814;28;20048;-80
2023/09/18 09:24:41;;;;;;;5.60;1.65;;;;;;;19.70;100.00;99673.16;5040908;28;20028;-81
2023/09/18 09:27:08;;;;;;;7.00;1.50;;;;;;;18.73;100.00;99658.63;5073299;28;20082;-81
2023/09/18 09:29:34;;;;;;;6.75;1.40;;;;;;;17.11;100.00;99667.00;5040763;28;20048;-80
2023/09/18 09:32:16;;;;;;;7.22;1.42;;;;;;;15.14;100.00;99685.81;5057079;28;20056;-80
2023/09/18 09:34:42;;;;;;;7.22;1.58;;;;;;;13.50;100.00;99693.78;5073717;28;20060;-78
2023/09/18 09:37:08;;;;;;;2.88;0.82;;;;;;;12.28;100.00;99691.16;5056643;28;20029;-77
2023/09/18 09:39:34;;;;;;;4.18;0.93;;;;;;;11.83;100.00;99705.34;5040333;28;20028;-77
2023/09/18 09:42:03;;;;;;;3.67;0.80;;;;;;;11.77;100.00;99698.06;5040528;28;20485;-77
2023/09/18 09:44:32;;;;;;;7.03;1.55;;;;;;;11.80;100.00;99700.38;5041465;28;20032;-77
2023/09/18 09:46:59;;;;;;;3.25;0.70;;;;;;;12.13;100.00;99707.56;5039496;28;20040;-76
2023/09/18 09:49:27;;;;;;;1.85;0.95;;;;;;;12.45;100.00;99708.50;5054802;28;20060;-77
2023/09/18 09:51:54;;;;;;;1.55;0.63;;;;;;;12.76;100.00;99696.94;5055332;28;20036;-77
2023/09/18 09:54:36;;;;;;;5.63;0.73;;;;;;;13.10;100.00;99692.19;5054541;28;20032;-77
2023/09/18 09:57:03;;;;;;;1.25;0.80;;;;;;;13.61;100.00;99688.47;5037868;28;20124;-77
2023/09/18 09:59:29;;;;;;;2.30;0.82;;;;;;;13.60;100.00;99697.63;5037606;28;20040;-78
2023/09/18 10:01:58;;;;;;;2.35;0.85;;;;;;;12.89;100.00;99701.44;5038065;28;20040;-78
2023/09/18 10:04:25;;;;;;;1.35;0.90;;;;;;;12.74;100.00;99706.28;5056422;28;20040;-76
2023/09/18 10:06:53;;;;;;;1.05;0.63;;;;;;;13.00;100.00;99699.91;5039424;28;20024;-78
2023/09/18 10:09:30;;;;;;;;;;;;;;;;;;;;;
2023/09/18 10:11:58;;;;;;;1.65;1.08;;;;;;;13.81;100.00;99698.25;5042847;28;20036;-78
2023/09/18 10:14:35;;;;;;;4.32;1.02;;;;;;;13.63;100.00;99707.16;5039950;28;20044;-76
2023/09/18 10:17:12;;;;;;;6.03;1.10;;;;;;;13.64;100.00;99709.63;5039835;28;20517;-76
2023/09/18 10:20:15;;;;;;;1.05;0.70;;;;;;;13.45;100.00;99702.53;5056023;28;20437;-77
2023/09/18 10:22:46;;;;;;;1.48;0.70;;;;;;;13.97;100.00;99700.38;5070389;28;20037;-75
2023/09/18 10:25:18;;;;;;;5.30;1.17;;;;;;;15.23;100.00;99697.13;5056110;28;20471;-76
2023/09/18 10:27:53;;;;;;;4.55;1.65;;;;;;;16.58;100.00;99703.44;5056009;28;20493;-77
2023/09/18 10:30:22;;;;;;;3.03;1.00;;;;;;;16.31;100.00;99706.69;5040345;28;20071;-76
2023/09/18 10:32:49;;;;;;;3.65;0.93;;;;;;;15.99;100.00;99711.69;5040063;28;20135;-76
2023/09/18 10:35:15;;;;;;;4.13;1.10;;;;;;;15.88;100.00;99717.94;5039452;28;20479;-76
2023/09/18 10:37:45;;;;;;;3.75;0.93;;;;;;;16.74;100.00;99718.13;5072614;28;20029;-78
2023/09/18 10:40:12;;;;;;;4.18;1.33;;;;;;;17.23;100.00;99710.41;5055496;28;20036;-78
2023/09/18 10:42:39;;;;;;;1.65;0.98;;;;;;;17.17;100.00;99716.78;5071853;28;20102;-77
2023/09/18 10:45:07;;;;;;;2.17;1.10;;;;;;;17.35;100.00;99713.84;5072324;28;20074;-77
2023/09/18 10:47:33;;;;;;;6.90;1.27;;;;;;;18.36;100.00;99708.28;5039363;28;20064;-77
2023/09/18 10:49:59;;;;;;;3.55;1.10;;;;;;;19.27;100.00;99704.16;5038854;28;20028;-78
2023/09/18 10:52:24;;;;;;;3.78;1.05;;;;;;;18.52;100.00;99705.78;5055237;28;20039;-77
2023/09/18 10:54:50;;;;;;;3.03;1.05;;;;;;;17.82;100.00;99696.41;5054960;28;20454;-77
2023/09/18 10:57:16;;;;;;;5.38;1.65;;;;;;;18.46;100.00;99702.16;5039231;28;20025;-77
2023/09/18 10:59:46;;;;;;;3.10;1.08;;;;;;;18.86;100.00;99698.28;5055504;28;20043;-77
2023/09/18 11:02:16;;;;;;;3.03;0.75;;;;;;;18.86;100.00;99701.84;5055754;28;20055;-77
2023/09/18 11:04:44;;;;;;;3.72;0.93;;;;;;;18.81;100.00;99699.06;5055341;28;20078;-77
2023/09/18 11:07:20;;;;;;;5.43;1.05;;;;;;;18.71;100.00;99687.19;5038987;28;20047;-77
2023/09/18 11:09:46;;;;;;;3.20;1.10;;;;;;;18.94;100.00;99686.13;5039026;28;20036;-77
2023/09/18 11:12:14;;;;;;;6.07;0.95;;;;;;;17.22;100.00;99687.81;5037200;28;20024;-80
2023/09/18 11:14:50;;;;;;;2.70;0.65;;;;;;;16.48;100.00;99693.19;5039131;28;20036;-78
2023/09/18 11:17:38;;;;;;;9.77;1.48;;;;;;;16.97;100.00;99695.53;5055389;28;20127;-78
2023/09/18 11:20:25;;;;;;;4.95;1.40;;;;;;;17.32;100.00;99693.44;5054842;28;20167;-78
2023/09/18 11:23:00;;;;;;;2.28;0.90;;;;;;;17.37;100.00;99692.69;5038881;28;20033;-77
2023/09/18 11:25:31;;;;;;;5.95;1.42;;;;;;;17.48;100.00;99690.97;5071600;28;20036;-78
2023/09/18 11:27:57;;;;;;;4.40;1.00;;;;;;;16.55;100.00;99704.75;5052822;28;20033;-77
2023/09/18 11:30:26;;;;;;;5.88;1.23;;;;;;;16.89;100.00;99688.59;5068321;28;20127;-79